EGEC/CAL METAR and TAF weather

Enter ICAO airport designator
Station Type Date Time Source
EGEC METAR 2024/05/28 16:20 UTC NOAA

EGEC 281620Z 28005KT 9999 FEW009 BKN014 14/12 Q1002


Station Type Date Time Source
EGEC Decoded METAR 2024/05/28 16:20 UTC NOAA

Campbeltown, United Kingdom (EGEC) 55-26-14N 005-41-11W
May 28, 2024 - 12:20 PM EDT / 2024.05.28 1620 UTC
Wind: from the W (280 degrees) at 6 MPH (5 KT):0
Visibility: greater than 7 mile(s):0
Sky conditions: mostly cloudy
Temperature: 57 F (14 C)
Dew Point: 53 F (12 C)
Relative Humidity: 87%
Pressure (altimeter): 29.59 in. Hg (1002 hPa)
ob: EGEC 281620Z 28005KT 9999 FEW009 BKN014 14/12 Q1002
cycle: 16

Station Type Date Time Source
EGEC TAF UTC NOAA

Error!

Example: see airport list